地図

経路データ

SID SEASON NUMBER BASIN SUBBASIN NAME ISO_TIME NATURE LAT LON WMO_WIND WMO_PRES WMO_AGENCY TRACK_TYPE DIST2LAND LANDFALL IFLAG USA_AGENCY USA_ATCF_ID USA_LAT USA_LON USA_RECORD USA_STATUS USA_WIND USA_PRES USA_SSHS USA_R34_NE USA_R34_SE USA_R34_SW USA_R34_NW USA_R50_NE USA_R50_SE USA_R50_SW USA_R50_NW USA_R64_NE USA_R64_SE USA_R64_SW USA_R64_NW USA_POCI USA_ROCI USA_RMW USA_EYE TOKYO_LAT TOKYO_LON TOKYO_GRADE TOKYO_WIND TOKYO_PRES TOKYO_R50_DIR TOKYO_R50_LONG TOKYO_R50_SHORT TOKYO_R30_DIR TOKYO_R30_LONG TOKYO_R30_SHORT TOKYO_LAND CMA_LAT CMA_LON CMA_CAT CMA_WIND CMA_PRES HKO_LAT HKO_LON HKO_CAT HKO_WIND HKO_PRES NEWDELHI_LAT NEWDELHI_LON NEWDELHI_GRADE NEWDELHI_WIND NEWDELHI_PRES NEWDELHI_CI NEWDELHI_DP NEWDELHI_POCI REUNION_LAT REUNION_LON REUNION_TYPE REUNION_WIND REUNION_PRES REUNION_TNUM REUNION_CI REUNION_RMW REUNION_R34_NE REUNION_R34_SE REUNION_R34_SW REUNION_R34_NW REUNION_R50_NE REUNION_R50_SE REUNION_R50_SW REUNION_R50_NW REUNION_R64_NE REUNION_R64_SE REUNION_R64_SW REUNION_R64_NW BOM_LAT BOM_LON BOM_TYPE BOM_WIND BOM_PRES BOM_TNUM BOM_CI BOM_RMW BOM_R34_NE BOM_R34_SE BOM_R34_SW BOM_R34_NW BOM_R50_NE BOM_R50_SE BOM_R50_SW BOM_R50_NW BOM_R64_NE BOM_R64_SE BOM_R64_SW BOM_R64_NW BOM_ROCI BOM_POCI BOM_EYE BOM_POS_METHOD BOM_PRES_METHOD NADI_LAT NADI_LON NADI_CAT NADI_WIND NADI_PRES WELLINGTON_LAT WELLINGTON_LON WELLINGTON_WIND WELLINGTON_PRES DS824_LAT DS824_LON DS824_STAGE DS824_WIND DS824_PRES TD9636_LAT TD9636_LON TD9636_STAGE TD9636_WIND TD9636_PRES TD9635_LAT TD9635_LON TD9635_WIND TD9635_PRES TD9635_ROCI NEUMANN_LAT NEUMANN_LON NEUMANN_CLASS NEUMANN_WIND NEUMANN_PRES MLC_LAT MLC_LON MLC_CLASS MLC_WIND MLC_PRES USA_GUST BOM_GUST BOM_GUST_PER REUNION_GUST REUNION_GUST_PER USA_SEAHGT USA_SEARAD_NE USA_SEARAD_SE USA_SEARAD_SW USA_SEARAD_NW STORM_SPEED STORM_DIR
1934292N11136 1934 68 WP MM NOT_NAMED 1934-10-18 22:00:00 NR 10.7000 136.000 main 1084 1001 __________O___ -1 10.7000 136.000 7 23 278
1934292N11136 1934 68 WP MM NOT_NAMED 1934-10-19 00:00:00 NR 10.8079 135.225 main 1001 888 __________P___ -1 10.8079 135.225 7 23 278
1934292N11136 1934 68 WP MM NOT_NAMED 1934-10-19 03:00:00 NR 10.9775 134.072 main 888 767 __________P___ -1 10.9775 134.072 7 23 279
1934292N11136 1934 68 WP MM NOT_NAMED 1934-10-19 06:00:00 NR 11.1718 132.942 main 767 667 __________P___ -1 11.1718 132.942 7 22 281
1934292N11136 1934 68 WP MM NOT_NAMED 1934-10-19 09:00:00 NR 11.4086 131.852 main 667 635 __________P___ -1 11.4086 131.852 7 22 283
1934292N11136 1934 68 WP MM NOT_NAMED 1934-10-19 10:00:00 NR 11.5000 131.500 main 624 551 __________O___ -1 11.5000 131.500 7 21 286
1934292N11136 1934 68 WP MM NOT_NAMED 1934-10-19 12:00:00 NR 11.7031 130.815 main 551 450 __________P___ -1 11.7031 130.815 7 21 288
1934292N11136 1934 68 WP MM NOT_NAMED 1934-10-19 15:00:00 NR 12.0405 129.844 main 450 370 __________P___ -1 12.0405 129.844 7 20 291
1934292N11136 1934 68 WP MM NOT_NAMED 1934-10-19 18:00:00 NR 12.3862 128.950 main 370 287 __________P___ -1 12.3862 128.950 7 18 292
1934292N11136 1934 68 WP MM NOT_NAMED 1934-10-19 21:00:00 NR 12.7055 128.146 main 287 269 __________P___ -1 12.7055 128.146 7 17 292
1934292N11136 1934 68 WP MM NOT_NAMED 1934-10-19 22:00:00 NR 12.8000 127.900 main 269 224 __________O___ -1 12.8000 127.900 3 15 291
1934292N11136 1934 68 WP MM NOT_NAMED 1934-10-20 00:00:00 NR 12.9628 127.442 main 224 180 __________P___ -1 12.9628 127.442 3 13 290
1934292N11136 1934 68 WP MM NOT_NAMED 1934-10-20 03:00:00 NR 13.1704 126.837 main 180 148 __________P___ -1 13.1704 126.837 3 12 289
1934292N11136 1934 68 WP MM NOT_NAMED 1934-10-20 06:00:00 NR 13.3370 126.296 main 148 126 __________P___ -1 13.3370 126.296 3 11 286
1934292N11136 1934 68 WP MM NOT_NAMED 1934-10-20 09:00:00 NR 13.4653 125.776 main 129 120 __________P___ -1 13.4653 125.776 3 10 284
1934292N11136 1934 68 WP MM NOT_NAMED 1934-10-20 10:00:00 NR 13.5000 125.600 main 120 87 __________O___ -1 13.5000 125.600 4 11 279
1934292N11136 1934 68 WP MM NOT_NAMED 1934-10-20 12:00:00 NR 13.5535 125.227 main 87 34 __________P___ -1 13.5535 125.227 4 11 276
1934292N11136 1934 68 WP MM NOT_NAMED 1934-10-20 15:00:00 NR 13.6024 124.667 main 34 0 __________P___ -1 13.6024 124.667 4 11 274
1934292N11136 1934 68 WP MM NOT_NAMED 1934-10-20 18:00:00 NR 13.6359 124.097 main 0 0 __________P___ -1 13.6359 124.097 4 11 274
1934292N11136 1934 68 WP MM NOT_NAMED 1934-10-20 21:00:00 NR 13.6791 123.505 main 0 0 __________P___ -1 13.6791 123.505 4 12 275
1934292N11136 1934 68 WP MM NOT_NAMED 1934-10-20 22:00:00 NR 13.7000 123.300 main 0 0 __________O___ -1 13.7000 123.300 4 13 278
1934292N11136 1934 68 WP MM NOT_NAMED 1934-10-21 00:00:00 NR 13.7688 122.865 main 0 0 __________P___ -1 13.7688 122.865 4 13 280
1934292N11136 1934 68 WP MM NOT_NAMED 1934-10-21 03:00:00 NR 13.8911 122.187 main 0 0 __________P___ -1 13.8911 122.187 4 14 281
1934292N11136 1934 68 WP MM NOT_NAMED 1934-10-21 06:00:00 NR 14.0250 121.498 main 0 0 __________P___ -1 14.0250 121.498 4 14 281
1934292N11136 1934 68 WP MM NOT_NAMED 1934-10-21 09:00:00 NR 14.1580 120.820 main 0 0 __________P___ -1 14.1580 120.820 4 13 281
1934292N11136 1934 68 WP MM NOT_NAMED 1934-10-21 10:00:00 NR 14.2000 120.600 main 0 0 __________O___ -1 14.2000 120.600 4 13 280
1934292N11136 1934 68 WP MM NOT_NAMED 1934-10-21 12:00:00 NR 14.2721 120.167 main 31 39 __________P___ -1 14.2721 120.167 4 13 280
1934292N11136 1934 68 WP MM NOT_NAMED 1934-10-21 15:00:00 NR 14.3743 119.536 main 78 78 __________P___ -1 14.3743 119.536 4 12 280
1934292N11136 1934 68 WP MM NOT_NAMED 1934-10-21 18:00:00 NR 14.4718 118.936 main 133 133 __________P___ -1 14.4718 118.936 4 11 280
1934292N11136 1934 68 WP MM NOT_NAMED 1934-10-21 21:00:00 NR 14.5678 118.376 main 184 193 __________P___ -1 14.5678 118.376 4 11 280
1934292N11136 1934 68 WP MM NOT_NAMED 1934-10-21 22:00:00 NR 14.6000 118.200 main 203 203 __________O___ -1 14.6000 118.200 4 10 281
1934292N11136 1934 68 WP MM NOT_NAMED 1934-10-22 00:00:00 NR 14.6662 117.863 main 228 238 __________P___ -1 14.6662 117.863 4 10 282
1934292N11136 1934 68 WP MM NOT_NAMED 1934-10-22 03:00:00 NR 14.7658 117.395 main 276 276 __________P___ -1 14.7658 117.395 4 9 283
1934292N11136 1934 68 WP MM NOT_NAMED 1934-10-22 06:00:00 NR 14.8660 116.959 main 314 324 __________P___ -1 14.8660 116.959 4 9 284
1934292N11136 1934 68 WP MM NOT_NAMED 1934-10-22 09:00:00 NR 14.9665 116.539 main 360 360 __________P___ -1 14.9665 116.539 4 8 284
1934292N11136 1934 68 WP MM NOT_NAMED 1934-10-22 10:00:00 NR 15.0000 116.400 main 371 371 __________O___ -1 15.0000 116.400 4 8 284
1934292N11136 1934 68 WP MM NOT_NAMED 1934-10-22 12:00:00 NR 15.0690 116.114 main 398 398 __________P___ -1 15.0690 116.114 4 8 284
1934292N11136 1934 68 WP MM NOT_NAMED 1934-10-22 15:00:00 NR 15.1728 115.690 main 437 437 __________P___ -1 15.1728 115.690 4 8 284
1934292N11136 1934 68 WP MM NOT_NAMED 1934-10-22 18:00:00 NR 15.2741 115.269 main 477 488 __________P___ -1 15.2741 115.269 4 8 284
1934292N11136 1934 68 WP MM NOT_NAMED 1934-10-22 21:00:00 NR 15.3699 114.844 main 528 528 __________P___ -1 15.3699 114.844 4 8 283
1934292N11136 1934 68 WP MM NOT_NAMED 1934-10-22 22:00:00 NR 15.4000 114.700 main 539 539 __________O___ -1 15.4000 114.700 4 9 281
1934292N11136 1934 68 WP MM NOT_NAMED 1934-10-23 00:00:00 NR 15.4504 114.400 main 555 516 __________P___ -1 15.4504 114.400 4 9 279
1934292N11136 1934 68 WP MM NOT_NAMED 1934-10-23 03:00:00 NR 15.5196 113.944 main 516 478 __________P___ -1 15.5196 113.944 4 9 279
1934292N11136 1934 68 WP MM NOT_NAMED 1934-10-23 06:00:00 NR 15.5895 113.489 main 478 433 __________P___ -1 15.5895 113.489 4 9 280
1934292N11136 1934 68 WP MM NOT_NAMED 1934-10-23 09:00:00 NR 15.6695 113.044 main 433 422 __________P___ -1 15.6695 113.044 4 9 281
1934292N11136 1934 68 WP MM NOT_NAMED 1934-10-23 10:00:00 NR 15.7000 112.900 main 422 395 __________O___ -1 15.7000 112.900 4 8 285
1934292N11136 1934 68 WP MM NOT_NAMED 1934-10-23 12:00:00 NR 15.7768 112.627 main 395 358 __________P___ -1 15.7768 112.627 4 8 288
1934292N11136 1934 68 WP MM NOT_NAMED 1934-10-23 15:00:00 NR 15.9050 112.231 main 358 323 __________P___ -1 15.9050 112.231 4 8 289
1934292N11136 1934 68 WP MM NOT_NAMED 1934-10-23 18:00:00 NR 16.0377 111.838 main 323 287 __________P___ -1 16.0377 111.838 4 8 289
1934292N11136 1934 68 WP MM NOT_NAMED 1934-10-23 21:00:00 NR 16.1624 111.438 main 287 280 __________P___ -1 16.1624 111.438 4 8 287
1934292N11136 1934 68 WP MM NOT_NAMED 1934-10-23 22:00:00 NR 16.2000 111.300 main 280 253 __________O___ -1 16.2000 111.300 4 9 283
1934292N11136 1934 68 WP MM NOT_NAMED 1934-10-24 00:00:00 NR 16.2562 111.003 main 253 210 __________P___ -1 16.2562 111.003 4 9 280
1934292N11136 1934 68 WP MM NOT_NAMED 1934-10-24 03:00:00 NR 16.3278 110.546 main 210 185 __________P___ -1 16.3278 110.546 4 9 279
1934292N11136 1934 68 WP MM NOT_NAMED 1934-10-24 06:00:00 NR 16.3951 110.087 main 185 149 __________P___ -1 16.3951 110.087 4 9 279
1934292N11136 1934 68 WP MM NOT_NAMED 1934-10-24 09:00:00 NR 16.4708 109.642 main 149 139 __________P___ -1 16.4708 109.642 4 9 281
1934292N11136 1934 68 WP MM NOT_NAMED 1934-10-24 10:00:00 NR 16.5000 109.500 main 139 117 __________O___ -1 16.5000 109.500 4 8 283
1934292N11136 1934 68 WP MM NOT_NAMED 1934-10-24 12:00:00 NR 16.5664 109.226 main 117 92 __________P___ -1 16.5664 109.226 4 8 286
1934292N11136 1934 68 WP MM NOT_NAMED 1934-10-24 15:00:00 NR 16.6828 108.840 main 93 79 __________P___ -1 16.6828 108.840 4 8 289
1934292N11136 1934 68 WP MM NOT_NAMED 1934-10-24 18:00:00 NR 16.8139 108.473 main 79 62 __________P___ -1 16.8139 108.473 4 7 291
1934292N11136 1934 68 WP MM NOT_NAMED 1934-10-24 21:00:00 NR 16.9530 108.118 main 69 61 __________P___ -1 16.9530 108.118 4 7 292
1934292N11136 1934 68 WP MM NOT_NAMED 1934-10-24 22:00:00 NR 17.0000 108.000 main 61 __________O___ -1 17.0000 108.000 4 7 293

デジタル台風データ・検索

IBTrACS Databaseについて

本データベースは、米国NOAAが公開する1842年以降の世界の熱帯低気圧のベストトラックデータアーカイブInternational Best Track Archive for Climate Stewardship (IBTrACS)を、ウェブで閲覧しやすい形式に変換したものです。

最終更新日:2021-11-26